Time;durP1;ratioP1;P1;durP2;ratioP2;P2;SDS_P1;SDS_P2;PMS_P1;PMS_P2;Temp;Humidity;BMP_temperature;BMP_pressure;BME280_temperature;BME280_humidity;BME280_pressure;Samples;Min_cycle;Max_cycle;Signal;HPM_P1;HPM_P2
2022/06/01 04:30:46;;;;;;;15.07;12.10;;;11.90;99.90;;;;;;5748322;23;21044;-73
2022/06/01 04:33:12;;;;;;;15.83;12.47;;;12.00;99.90;;;;;;4934685;29;20933;-72
2022/06/01 04:35:38;;;;;;;15.37;13.70;;;12.10;99.90;;;;;;4934540;29;20427;-72
2022/06/01 04:38:12;;;;;;;13.40;11.77;;;12.10;99.90;;;;;;4934464;29;20218;-73
2022/06/01 04:40:39;;;;;;;13.47;12.07;;;12.20;99.90;;;;;;4934407;29;20196;-71
2022/06/01 04:43:04;;;;;;;14.27;12.77;;;12.20;99.90;;;;;;4937373;29;20437;-71
2022/06/01 04:45:30;;;;;;;14.03;11.80;;;12.30;99.90;;;;;;4938324;29;20422;-68
2022/06/01 04:47:56;;;;;;;13.37;12.10;;;12.40;99.90;;;;;;4938193;29;20187;-68
2022/06/01 04:50:21;;;;;;;13.30;11.90;;;12.50;99.90;;;;;;4938311;29;20183;-68
2022/06/01 04:52:47;;;;;;;12.23;10.97;;;12.60;99.90;;;;;;4938336;29;20175;-69
2022/06/01 04:55:12;;;;;;;12.40;11.07;;;12.60;99.90;;;;;;4938111;29;20575;-67
2022/06/01 04:57:39;;;;;;;14.73;13.13;;;12.70;99.90;;;;;;4937984;29;20215;-70
2022/06/01 05:00:24;;;;;;;18.17;11.33;;;12.70;99.90;;;;;;4938052;29;20225;-69
2022/06/01 05:02:50;;;;;;;15.40;12.50;;;12.80;99.90;;;;;;4937872;29;20438;-72
2022/06/01 05:05:16;;;;;;;14.17;11.80;;;12.90;99.90;;;;;;4937725;29;20418;-68
2022/06/01 05:07:41;;;;;;;13.40;11.53;;;12.90;99.90;;;;;;4937816;29;20222;-69
2022/06/01 05:10:07;;;;;;;17.17;12.97;;;13.00;99.90;;;;;;4937644;29;20549;-69
2022/06/01 05:12:34;;;;;;;16.87;11.67;;;13.00;99.90;;;;;;4937726;29;20187;-70
2022/06/01 05:14:59;;;;;;;16.13;11.70;;;13.10;99.90;;;;;;4936475;29;20427;-70
2022/06/01 05:17:25;;;;;;;15.53;12.10;;;13.10;99.90;;;;;;4943403;29;21000;-70
2022/06/01 05:19:50;;;;;;;13.23;11.77;;;13.20;99.90;;;;;;4945462;29;20753;-70
2022/06/01 05:22:16;;;;;;;14.83;10.90;;;13.20;99.90;;;;;;4946883;29;20514;-70
2022/06/01 05:24:41;;;;;;;18.40;11.13;;;13.30;99.90;;;;;;4945315;29;20214;-70
2022/06/01 05:27:07;;;;;;;16.13;11.27;;;13.30;99.90;;;;;;4947144;29;20186;-70
2022/06/01 05:29:34;;;;;;;13.00;10.90;;;13.40;99.90;;;;;;4944642;29;20538;-69
2022/06/01 05:31:59;;;;;;;14.40;11.33;;;13.40;99.90;;;;;;4946105;29;20222;-69
2022/06/01 05:34:25;;;;;;;13.47;11.53;;;13.50;99.90;;;;;;4940846;29;20518;-69
2022/06/01 05:36:51;;;;;;;14.50;10.90;;;13.60;99.90;;;;;;4944356;29;20317;-71
2022/06/01 05:39:16;;;;;;;13.10;11.70;;;13.60;99.90;;;;;;4945451;29;20713;-70
2022/06/01 05:41:42;;;;;;;15.97;11.83;;;13.70;99.90;;;;;;4940090;29;20262;-69
2022/06/01 05:44:07;;;;;;;12.63;10.40;;;13.70;99.90;;;;;;4936750;29;20179;-69
2022/06/01 05:46:36;;;;;;;13.60;11.70;;;13.80;99.90;;;;;;4937768;29;20278;-70
2022/06/01 05:49:05;;;;;;;17.17;14.17;;;13.80;99.90;;;;;;4937808;29;20202;-70
2022/06/01 05:51:31;;;;;;;15.50;12.20;;;13.90;99.90;;;;;;4937991;29;20435;-70
2022/06/01 05:53:57;;;;;;;17.60;13.23;;;14.00;99.90;;;;;;4936902;29;20426;-70
2022/06/01 05:56:22;;;;;;;13.93;12.47;;;14.00;99.90;;;;;;4938046;29;20590;-71
2022/06/01 05:58:50;;;;;;;16.13;12.70;;;14.10;99.90;;;;;;4937760;29;20694;-70
2022/06/01 06:01:17;;;;;;;16.80;15.03;;;14.20;99.90;;;;;;4937932;29;20191;-71
2022/06/01 06:03:42;;;;;;;15.03;13.10;;;14.20;99.90;;;;;;4937820;29;20457;-70
2022/06/01 06:06:17;;;;;;;15.70;13.77;;;14.30;99.90;;;;;;4937635;29;20419;-71
2022/06/01 06:08:48;;;;;;;13.77;12.23;;;14.40;99.90;;;;;;4937732;29;20183;-70
2022/06/01 06:11:15;;;;;;;20.03;14.67;;;14.40;99.90;;;;;;4937671;29;20788;-71
2022/06/01 06:13:41;;;;;;;20.57;13.07;;;14.40;99.90;;;;;;4937564;29;20802;-70
2022/06/01 06:16:07;;;;;;;16.47;13.60;;;14.50;99.90;;;;;;4937478;29;20435;-70
2022/06/01 06:18:32;;;;;;;14.60;13.10;;;14.50;99.90;;;;;;4937478;29;20218;-70
2022/06/01 06:20:58;;;;;;;16.87;14.47;;;14.50;99.90;;;;;;4937470;29;20423;-70
2022/06/01 06:23:24;;;;;;;21.83;16.53;;;14.60;99.90;;;;;;4937515;29;20211;-70
2022/06/01 06:25:49;;;;;;;20.83;15.53;;;14.60;99.90;;;;;;4937481;29;20262;-70
2022/06/01 06:28:15;;;;;;;17.93;15.20;;;14.70;99.90;;;;;;4937271;29;20186;-70
2022/06/01 06:30:42;;;;;;;20.13;15.53;;;14.70;99.90;;;;;;4937307;29;20674;-70
2022/06/01 06:33:07;;;;;;;18.60;15.27;;;14.70;99.90;;;;;;4937100;29;20213;-70
2022/06/01 06:35:34;;;;;;;19.17;14.23;;;14.70;99.90;;;;;;4937098;29;20427;-70
2022/06/01 06:37:59;;;;;;;21.07;16.10;;;14.80;99.90;;;;;;4937104;29;20219;-70
2022/06/01 06:40:25;;;;;;;21.83;15.20;;;14.80;99.90;;;;;;4937202;29;20789;-70
2022/06/01 06:42:52;;;;;;;21.80;16.67;;;14.90;99.90;;;;;;4936841;29;20183;-70
2022/06/01 06:45:19;;;;;;;27.67;16.97;;;14.90;99.90;;;;;;4936984;29;20235;-70
2022/06/01 06:47:44;;;;;;;22.27;15.40;;;15.00;99.90;;;;;;4936942;29;20533;-70
2022/06/01 06:50:12;;;;;;;16.67;13.77;;;15.10;99.90;;;;;;4936931;29;20525;-70
2022/06/01 06:52:37;;;;;;;18.70;15.23;;;15.20;99.90;;;;;;4936984;29;20175;-71
2022/06/01 06:55:04;;;;;;;22.30;15.10;;;15.30;99.90;;;;;;4936840;29;20509;-70
2022/06/01 06:57:30;;;;;;;22.23;15.17;;;15.30;99.90;;;;;;4936829;29;20222;-71
2022/06/01 06:59:56;;;;;;;22.23;16.00;;;15.40;99.90;;;;;;4936763;29;20434;-70
2022/06/01 07:02:21;;;;;;;16.57;14.50;;;15.40;99.90;;;;;;4936870;29;20273;-71
2022/06/01 07:04:47;;;;;;;19.47;14.33;;;15.50;99.90;;;;;;4936498;29;20592;-70
2022/06/01 07:07:14;;;;;;;16.17;14.47;;;15.60;99.90;;;;;;4936786;29;20584;-70
2022/06/01 07:09:39;;;;;;;17.30;13.80;;;15.60;99.90;;;;;;4936698;29;20183;-70
2022/06/01 07:12:05;;;;;;;15.60;12.40;;;15.50;99.90;;;;;;4936578;29;20846;-70
2022/06/01 07:14:31;;;;;;;15.13;12.30;;;15.50;99.90;;;;;;4936526;29;20698;-70
2022/06/01 07:17:00;;;;;;;16.80;11.53;;;15.50;99.90;;;;;;4936385;29;20309;-70
2022/06/01 07:19:27;;;;;;;21.80;11.30;;;15.50;99.90;;;;;;4936377;29;20194;-71
2022/06/01 07:21:53;;;;;;;11.60;9.47;;;15.60;99.90;;;;;;4936358;29;20426;-70
2022/06/01 07:24:19;;;;;;;11.10;9.40;;;15.60;99.90;;;;;;4936318;29;20435;-70
2022/06/01 07:26:45;;;;;;;10.67;9.37;;;15.70;99.90;;;;;;4936198;29;20214;-71
2022/06/01 07:29:13;;;;;;;8.80;7.73;;;15.70;99.90;;;;;;4936319;29;20187;-70
2022/06/01 07:31:39;;;;;;;13.97;6.87;;;15.80;99.90;;;;;;4936045;29;20554;-70
2022/06/01 07:34:06;;;;;;;10.67;8.07;;;15.80;99.90;;;;;;4936141;29;20449;-70
2022/06/01 07:36:32;;;;;;;7.50;6.70;;;15.80;99.90;;;;;;4936222;29;20784;-70
2022/06/01 07:44:49;;;;;;;7.87;6.00;;;15.90;99.90;;;;;;4936310;29;20517;-70
2022/06/01 07:47:15;;;;;;;7.70;4.97;;;15.80;99.90;;;;;;4935978;29;20422;-70
2022/06/01 07:49:41;;;;;;;5.60;4.67;;;15.90;99.90;;;;;;4936035;29;20489;-70
2022/06/01 07:52:12;;;;;;;7.10;5.43;;;15.90;99.90;;;;;;4936006;29;20977;-70
2022/06/01 07:54:39;;;;;;;6.23;4.80;;;15.90;99.90;;;;;;4936008;29;20185;-70
2022/06/01 07:57:05;;;;;;;6.90;4.93;;;16.10;99.90;;;;;;4935763;29;20474;-70
2022/06/01 07:59:31;;;;;;;6.40;4.20;;;16.10;99.90;;;;;;4935844;29;20435;-70
2022/06/01 08:01:57;;;;;;;6.47;3.83;;;16.10;99.90;;;;;;4935749;29;20934;-70
2022/06/01 08:04:22;;;;;;;5.13;4.23;;;16.10;99.90;;;;;;4935991;29;20423;-70
2022/06/01 08:06:48;;;;;;;6.83;3.87;;;16.10;99.90;;;;;;4935779;29;20201;-71
2022/06/01 08:09:14;;;;;;;5.70;3.67;;;16.00;99.90;;;;;;4935816;29;20179;-70
2022/06/01 08:14:23;;;;;;;4.07;3.07;;;16.10;99.90;;;;;;4936114;29;20279;-70
2022/06/01 08:16:49;;;;;;;6.30;3.53;;;16.20;99.90;;;;;;4936584;29;20527;-70
2022/06/01 08:19:16;;;;;;;5.90;3.73;;;16.30;99.90;;;;;;4939724;29;20496;-70
2022/06/01 08:21:42;;;;;;;4.00;3.60;;;16.40;99.90;;;;;;4939671;29;20242;-70
2022/06/01 08:24:09;;;;;;;6.80;3.87;;;16.40;99.90;;;;;;4939509;29;20941;-70
2022/06/01 08:26:35;;;;;;;8.00;4.50;;;16.40;99.90;;;;;;4939612;29;20431;-70
2022/06/01 08:29:02;;;;;;;6.97;4.07;;;16.30;99.90;;;;;;4939567;29;20426;-70
2022/06/01 08:31:30;;;;;;;4.23;3.60;;;16.00;99.90;;;;;;4939294;29;20846;-70
2022/06/01 08:33:57;;;;;;;6.47;4.40;;;16.00;99.90;;;;;;4939306;29;20427;-70
2022/06/01 08:36:22;;;;;;;5.43;4.13;;;16.00;99.90;;;;;;4939417;29;20427;-70
2022/06/01 08:38:48;;;;;;;6.37;4.30;;;16.10;99.90;;;;;;4939170;29;20474;-71
2022/06/01 08:41:17;;;;;;;6.87;4.80;;;15.80;99.90;;;;;;4939470;29;20345;-70
2022/06/01 08:43:49;;;;;;;5.37;3.70;;;15.90;99.90;;;;;;4939175;29;20513;-70
2022/06/01 08:46:15;;;;;;;5.53;4.00;;;15.90;99.90;;;;;;4939270;29;20423;-71
2022/06/01 08:48:47;;;;;;;4.67;4.27;;;15.90;99.90;;;;;;4939119;29;20433;-70
2022/06/01 08:51:13;;;;;;;7.60;4.67;;;16.00;99.90;;;;;;4939069;29;20418;-70
2022/06/01 08:53:40;;;;;;;3.80;3.40;;;16.00;99.90;;;;;;4939149;29;20474;-71
2022/06/01 08:56:14;;;;;;;6.07;5.47;;;16.00;99.90;;;;;;4938964;29;20427;-70
2022/06/01 08:59:05;;;;;;;4.40;4.00;;;16.20;99.90;;;;;;4938886;29;20485;-71
2022/06/01 09:01:42;;;;;;;5.50;4.40;;;16.40;99.90;;;;;;4938927;29;20506;-70
2022/06/01 09:04:35;;;;;;;4.60;4.20;;;16.60;99.90;;;;;;4938956;29;20430;-70
2022/06/01 09:07:15;;;;;;;7.40;5.10;;;16.70;99.90;;;;;;4938795;29;20461;-70
2022/06/01 09:10:16;;;;;;;5.63;3.73;;;16.80;99.90;;;;;;4939074;29;21012;-70
2022/06/01 09:12:45;;;;;;;5.03;4.30;;;16.80;99.90;;;;;;4938720;29;21094;-70
2022/06/01 09:15:25;;;;;;;5.20;3.90;;;16.70;99.90;;;;;;4938658;29;20431;-70
2022/06/01 09:17:53;;;;;;;4.87;4.37;;;16.60;99.90;;;;;;4938624;29;20565;-70
2022/06/01 09:23:09;;;;;;;5.80;4.23;;;16.40;99.90;;;;;;4938794;29;20469;-70
2022/06/01 09:25:35;;;;;;;5.50;4.57;;;16.40;99.90;;;;;;4938546;29;20795;-70
2022/06/01 09:28:26;;;;;;;4.33;3.90;;;16.30;99.90;;;;;;4938415;29;20438;-71
2022/06/01 09:30:55;;;;;;;5.53;3.90;;;16.30;99.90;;;;;;4938137;29;20222;-70
2022/06/01 09:33:24;;;;;;;5.63;5.00;;;16.30;99.90;;;;;;4938428;29;20434;-70
2022/06/01 09:36:08;;;;;;;4.83;3.50;;;16.30;99.90;;;;;;4938371;29;20471;-71
2022/06/01 09:38:50;;;;;;;5.10;4.40;;;16.30;99.90;;;;;;4938290;29;20501;-70
2022/06/01 09:41:24;;;;;;;5.13;4.67;;;16.30;99.90;;;;;;4938370;29;20518;-70
2022/06/01 09:44:05;;;;;;;4.53;4.07;;;16.50;99.90;;;;;;4938139;29;20509;-71
2022/06/01 09:46:47;;;;;;;8.67;4.00;;;16.60;99.90;;;;;;4937985;29;20929;-70
2022/06/01 09:49:30;;;;;;;3.77;3.47;;;16.60;99.90;;;;;;4938096;29;20431;-70
2022/06/01 09:52:02;;;;;;;4.47;3.53;;;16.60;99.90;;;;;;4938058;29;20437;-71
2022/06/01 09:54:34;;;;;;;3.10;2.83;;;16.70;99.90;;;;;;4938162;29;20425;-70
2022/06/01 09:57:31;;;;;;;3.23;2.93;;;16.80;99.90;;;;;;4937797;29;20514;-70
2022/06/01 10:08:23;;;;;;;3.23;2.93;;;16.90;99.90;;;;;;4937048;29;20426;-71
2022/06/01 10:10:58;;;;;;;3.47;3.17;;;16.90;99.90;;;;;;4936720;29;20489;-71
2022/06/01 10:13:36;;;;;;;3.30;3.00;;;16.90;99.90;;;;;;4936860;29;20549;-70
2022/06/01 10:16:10;;;;;;;4.03;2.83;;;17.00;99.90;;;;;;4936527;29;20433;-71
2022/06/01 10:18:39;;;;;;;3.67;3.37;;;17.00;99.90;;;;;;4936750;29;20482;-70
2022/06/01 10:21:08;;;;;;;4.23;2.67;;;17.00;99.90;;;;;;4936649;29;20835;-70
2022/06/01 10:23:51;;;;;;;3.60;3.30;;;17.10;99.90;;;;;;4936729;29;20522;-70
2022/06/01 10:26:25;;;;;;;4.30;2.87;;;17.00;99.90;;;;;;4936702;29;20427;-71
2022/06/01 10:28:55;;;;;;;3.17;2.57;;;17.00;99.90;;;;;;4936478;29;20522;-70
2022/06/01 10:31:32;;;;;;;2.70;2.50;;;17.00;99.90;;;;;;4936189;29;21037;-70
2022/06/01 10:34:18;;;;;;;2.90;2.60;;;17.20;99.90;;;;;;4936389;29;20426;-70
2022/06/01 10:36:52;;;;;;;3.17;2.90;;;17.40;99.90;;;;;;4936228;29;20439;-71
2022/06/01 10:39:30;;;;;;;3.93;3.30;;;17.50;99.90;;;;;;4935979;29;20525;-70
2022/06/01 10:42:17;;;;;;;4.73;3.20;;;17.70;99.90;;;;;;4936290;29;20430;-71
2022/06/01 10:44:58;;;;;;;5.43;2.77;;;17.70;99.90;;;;;;4936240;29;20535;-71
2022/06/01 10:48:05;;;;;;;3.40;3.03;;;17.70;99.90;;;;;;4936360;29;20431;-70
2022/06/01 10:50:38;;;;;;;3.03;2.73;;;17.80;99.90;;;;;;4922427;29;20434;-70
2022/06/01 10:53:24;;;;;;;2.97;2.63;;;17.70;99.90;;;;;;4936164;29;20435;-71
2022/06/01 10:55:49;;;;;;;2.67;2.47;;;17.70;99.90;;;;;;4932024;29;20446;-71
2022/06/01 10:58:23;;;;;;;3.70;2.90;;;17.70;99.90;;;;;;4935888;29;20821;-70
2022/06/01 11:01:51;;;;;;;3.60;2.27;;;17.70;99.90;;;;;;4935844;29;20191;-71
2022/06/01 11:04:39;;;;;;;4.13;2.67;;;17.70;99.90;;;;;;4890940;29;20485;-70
2022/06/01 11:07:17;;;;;;;2.80;2.53;;;17.70;99.90;;;;;;4933997;29;20427;-70
2022/06/01 11:10:10;;;;;;;2.60;2.40;;;17.70;99.70;;;;;;4935922;29;20522;-71
2022/06/01 11:12:53;;;;;;;3.83;2.50;;;17.50;99.90;;;;;;4935891;29;20534;-71
2022/06/01 11:15:39;;;;;;;3.97;2.77;;;17.50;99.90;;;;;;4935844;29;20856;-71
2022/06/01 11:18:27;;;;;;;3.10;2.77;;;17.20;99.90;;;;;;4935586;29;20900;-71
2022/06/01 11:21:14;;;;;;;2.73;2.17;;;17.20;99.90;;;;;;4935658;29;20998;-71
2022/06/01 11:23:45;;;;;;;4.60;2.33;;;17.20;99.90;;;;;;4935680;29;20795;-71
2022/06/01 11:26:23;;;;;;;2.97;2.47;;;17.30;99.90;;;;;;4935439;29;20435;-71
2022/06/01 11:29:11;;;;;;;2.43;2.07;;;17.30;99.90;;;;;;4935525;29;20850;-71
2022/06/01 11:31:39;;;;;;;2.40;2.20;;;17.40;99.90;;;;;;4935390;29;20604;-71
2022/06/01 11:34:46;;;;;;;3.83;3.00;;;17.40;99.90;;;;;;4935352;29;20423;-71
2022/06/01 11:37:18;;;;;;;3.07;2.73;;;17.40;99.90;;;;;;4935443;29;20466;-71
2022/06/01 11:40:07;;;;;;;3.43;2.73;;;17.50;99.90;;;;;;4935395;29;20443;-71
2022/06/01 11:42:51;;;;;;;3.90;2.03;;;17.50;99.90;;;;;;4935263;29;20454;-71
2022/06/01 11:45:32;;;;;;;3.30;2.93;;;17.60;99.90;;;;;;4935294;29;20454;-71
2022/06/01 11:48:07;;;;;;;4.63;2.50;;;17.60;99.90;;;;;;4935187;29;20785;-71
2022/06/01 11:50:48;;;;;;;6.50;3.23;;;17.60;99.90;;;;;;4934955;29;20473;-71
2022/06/01 11:53:29;;;;;;;5.80;2.53;;;17.50;99.90;;;;;;4934744;29;20430;-71
2022/06/01 11:56:23;;;;;;;3.37;3.07;;;17.50;99.90;;;;;;4934970;29;20451;-71
2022/06/01 11:59:32;;;;;;;3.40;3.10;;;17.40;99.90;;;;;;4935001;29;20471;-71
2022/06/01 12:02:01;;;;;;;3.20;2.90;;;17.40;99.90;;;;;;4916021;29;20437;-71
2022/06/01 12:04:53;;;;;;;5.47;3.10;;;17.50;99.90;;;;;;4935597;29;20429;-71
2022/06/01 12:07:25;;;;;;;4.43;2.93;;;17.60;99.90;;;;;;4935715;29;20445;-71
2022/06/01 12:10:22;;;;;;;4.53;3.10;;;17.70;99.90;;;;;;4935710;29;20422;-71
2022/06/01 12:13:21;;;;;;;5.80;2.90;;;17.80;99.90;;;;;;4935736;29;20430;-71
2022/06/01 12:16:18;;;;;;;6.03;2.80;;;17.70;99.90;;;;;;4935336;29;20438;-71
2022/06/01 12:19:19;;;;;;;3.20;2.60;;;17.70;99.90;;;;;;4935676;29;20978;-70
2022/06/01 12:21:44;;;;;;;3.30;2.17;;;17.60;99.90;;;;;;4935838;29;20442;-69
2022/06/01 12:30:00;;;;;;;3.80;1.97;;;17.70;97.80;;;;;;4925706;29;20584;-70
2022/06/01 12:32:30;;;;;;;4.73;2.20;;;17.60;99.90;;;;;;4935284;29;21135;-72
2022/06/01 12:35:15;;;;;;;2.97;1.90;;;17.60;99.90;;;;;;4935622;29;20433;-71
2022/06/01 12:38:16;;;;;;;2.47;1.90;;;17.60;98.70;;;;;;4935393;29;20481;-71
2022/06/01 12:41:03;;;;;;;2.00;1.80;;;17.40;98.90;;;;;;4934167;29;20950;-69
2022/06/01 12:43:29;;;;;;;2.97;2.30;;;17.30;99.90;;;;;;4916633;29;20531;-69
2022/06/01 12:45:55;;;;;;;2.80;2.20;;;17.30;99.90;;;;;;4916384;29;20446;-70
2022/06/01 12:48:25;;;;;;;6.60;2.30;;;17.20;99.90;;;;;;4916552;29;20431;-71
2022/06/01 12:51:03;;;;;;;3.07;2.30;;;17.30;99.90;;;;;;4916322;29;20182;-70
2022/06/01 12:53:43;;;;;;;2.43;1.87;;;17.60;99.90;;;;;;4916511;29;20575;-71
2022/06/01 12:56:15;;;;;;;5.83;3.30;;;17.80;99.90;;;;;;4927310;29;20530;-71
2022/06/01 12:58:41;;;;;;;3.80;2.33;;;18.10;99.90;;;;;;4954465;28;20477;-70
2022/06/01 13:01:08;;;;;;;2.50;2.30;;;18.40;99.90;;;;;;4954454;29;20422;-70
2022/06/01 13:03:33;;;;;;;2.33;2.13;;;18.60;99.90;;;;;;4956464;28;20186;-71
2022/06/01 13:06:03;;;;;;;4.83;2.40;;;18.80;99.90;;;;;;4958068;28;20909;-70
2022/06/01 13:08:32;;;;;;;2.13;1.93;;;18.90;99.90;;;;;;4958030;28;20183;-72
2022/06/01 13:11:12;;;;;;;3.23;2.10;;;19.10;99.90;;;;;;4957854;28;20442;-71
2022/06/01 13:13:37;;;;;;;4.33;2.73;;;19.40;99.90;;;;;;4957879;28;20435;-71
2022/06/01 13:16:05;;;;;;;2.50;2.27;;;19.50;97.50;;;;;;4957829;29;20513;-71
2022/06/01 13:18:35;;;;;;;3.37;2.23;;;19.50;95.10;;;;;;4957846;28;20292;-71
2022/06/01 13:21:31;;;;;;;2.97;2.57;;;19.50;95.30;;;;;;4957630;28;20444;-71
2022/06/01 13:24:04;;;;;;;2.73;2.53;;;19.30;96.60;;;;;;4957744;28;20793;-71
2022/06/01 13:26:37;;;;;;;11.80;3.03;;;18.90;97.90;;;;;;4957783;28;20433;-71
2022/06/01 13:29:23;;;;;;;3.83;3.53;;;18.70;99.00;;;;;;4957362;28;20438;-70
2022/06/01 13:31:57;;;;;;;4.77;2.83;;;18.20;99.60;;;;;;4943729;29;20569;-70
2022/06/01 13:34:30;;;;;;;5.50;3.17;;;18.10;99.90;;;;;;4945578;28;20453;-71
2022/06/01 13:37:23;;;;;;;3.47;3.10;;;17.90;99.90;;;;;;4947196;28;20426;-69
2022/06/01 13:40:05;;;;;;;2.60;2.40;;;17.60;99.90;;;;;;4943866;29;20442;-70
2022/06/01 13:42:57;;;;;;;2.83;2.63;;;17.20;99.90;;;;;;4944707;29;20441;-70
2022/06/01 13:45:34;;;;;;;3.50;2.80;;;16.90;99.90;;;;;;4947610;29;20790;-69
2022/06/01 13:48:05;;;;;;;4.20;2.77;;;16.80;99.90;;;;;;4957248;28;20485;-69
2022/06/01 13:50:38;;;;;;;2.60;2.40;;;16.60;99.90;;;;;;4957415;28;20485;-70
2022/06/01 13:53:18;;;;;;;2.67;2.47;;;16.50;99.90;;;;;;4957286;28;20473;-69
2022/06/01 13:56:05;;;;;;;4.23;2.90;;;16.40;99.90;;;;;;4957209;28;20533;-70
2022/06/01 13:58:37;;;;;;;2.63;2.47;;;16.20;99.90;;;;;;4957124;28;20470;-70
2022/06/01 14:01:08;;;;;;;3.20;3.00;;;16.10;99.90;;;;;;4957120;28;20473;-70
2022/06/01 14:03:39;;;;;;;4.60;3.50;;;16.00;99.90;;;;;;4957084;28;20458;-69
2022/06/01 14:06:08;;;;;;;3.87;3.57;;;16.00;99.90;;;;;;4956948;28;20446;-69
2022/06/01 14:08:33;;;;;;;3.33;3.13;;;16.00;99.90;;;;;;4956946;28;20428;-70
2022/06/01 14:11:06;;;;;;;5.97;3.23;;;15.90;99.90;;;;;;4956868;29;20422;-69
2022/06/01 14:13:41;;;;;;;2.93;2.73;;;15.90;99.90;;;;;;4956871;28;20223;-69
2022/06/01 14:16:09;;;;;;;4.80;2.70;;;15.80;99.90;;;;;;4956447;28;20429;-69
2022/06/01 14:18:35;;;;;;;4.10;2.93;;;15.80;99.90;;;;;;4956767;28;20597;-69
2022/06/01 14:21:02;;;;;;;3.47;3.17;;;15.70;99.90;;;;;;4956769;28;20485;-69
2022/06/01 14:23:28;;;;;;;3.63;2.50;;;15.70;99.90;;;;;;4956691;28;20525;-69
2022/06/01 14:28:39;;;;;;;5.67;3.00;;;15.50;99.90;;;;;;4956658;29;20181;-70
2022/06/01 14:31:09;;;;;;;4.10;3.70;;;15.50;99.90;;;;;;4956390;28;20466;-69
2022/06/01 14:33:35;;;;;;;3.63;3.33;;;15.30;99.90;;;;;;4956528;28;20434;-69
2022/06/01 14:36:01;;;;;;;6.47;4.20;;;15.20;99.90;;;;;;4956433;28;20513;-69
2022/06/01 14:38:27;;;;;;;4.23;3.83;;;15.10;99.90;;;;;;4956365;29;20577;-69
2022/06/01 14:40:54;;;;;;;5.20;4.67;;;15.00;99.90;;;;;;4956385;29;20178;-69
2022/06/01 14:43:25;;;;;;;8.10;4.50;;;15.00;99.90;;;;;;4956524;28;20777;-69
2022/06/01 14:45:50;;;;;;;5.37;4.87;;;14.90;99.90;;;;;;4956358;28;20422;-69
2022/06/01 14:48:16;;;;;;;7.30;6.50;;;14.90;99.90;;;;;;4956289;29;20438;-69
2022/06/01 14:50:41;;;;;;;7.90;4.80;;;14.90;99.90;;;;;;4956191;29;20186;-69
2022/06/01 14:53:24;;;;;;;5.60;4.80;;;14.90;99.90;;;;;;4956162;29;20653;-69
2022/06/01 14:55:49;;;;;;;8.00;5.90;;;14.90;99.90;;;;;;4956142;28;20193;-69
2022/06/01 14:58:15;;;;;;;5.10;4.60;;;14.90;99.90;;;;;;4956082;29;20981;-69
2022/06/01 15:00:41;;;;;;;6.83;5.90;;;15.00;99.90;;;;;;4956024;28;20269;-69
2022/06/01 15:03:11;;;;;;;6.17;5.67;;;15.00;99.90;;;;;;4955999;28;20440;-69
2022/06/01 15:05:37;;;;;;;6.90;6.20;;;15.10;99.90;;;;;;4955916;28;20528;-69
2022/06/01 15:08:03;;;;;;;6.80;6.20;;;15.20;99.90;;;;;;4955873;28;20446;-69
2022/06/01 15:10:29;;;;;;;6.07;5.57;;;15.20;99.90;;;;;;4955894;28;20171;-69
2022/06/01 15:12:56;;;;;;;6.63;5.93;;;15.30;99.90;;;;;;4955706;29;20445;-69
2022/06/01 15:15:22;;;;;;;7.60;5.67;;;15.30;99.90;;;;;;4955890;28;20200;-69
2022/06/01 15:17:48;;;;;;;6.57;6.17;;;15.30;99.90;;;;;;4955576;28;20553;-69
2022/06/01 15:20:15;;;;;;;5.73;5.20;;;15.30;99.90;;;;;;4955728;29;20513;-69
2022/06/01 15:22:41;;;;;;;6.70;6.10;;;15.30;99.90;;;;;;4955546;28;20178;-69
2022/06/01 15:25:09;;;;;;;7.20;6.60;;;15.30;99.90;;;;;;4955557;28;20441;-69
2022/06/01 15:27:36;;;;;;;7.13;6.50;;;15.40;99.90;;;;;;4955464;28;20484;-69
2022/06/01 15:41:04;;;;;;;5.73;5.20;;;15.30;99.90;;;;;;4955579;29;20936;-69
2022/06/01 15:43:30;;;;;;;4.97;4.57;;;15.30;99.90;;;;;;4955399;28;20430;-70
2022/06/01 15:45:56;;;;;;;6.13;5.63;;;15.30;99.90;;;;;;4955179;28;20264;-70
2022/06/01 15:48:23;;;;;;;8.60;6.57;;;15.30;99.90;;;;;;4955180;28;20430;-69
2022/06/01 15:50:51;;;;;;;8.90;7.57;;;15.40;99.90;;;;;;4955160;28;20422;-69
2022/06/01 15:53:16;;;;;;;6.10;5.50;;;15.60;99.90;;;;;;4955150;28;20422;-69
2022/06/01 15:55:43;;;;;;;9.53;5.67;;;15.80;99.90;;;;;;4955041;29;20454;-69
2022/06/01 15:58:09;;;;;;;6.30;5.40;;;16.00;99.90;;;;;;4955219;28;20214;-69
2022/06/01 16:00:36;;;;;;;9.30;4.97;;;16.10;99.90;;;;;;4955029;28;20469;-69
2022/06/01 16:03:02;;;;;;;4.70;4.30;;;16.20;99.90;;;;;;4954962;28;20437;-69
2022/06/01 16:05:28;;;;;;;4.67;4.30;;;16.30;99.90;;;;;;4954996;29;20527;-69
2022/06/01 16:07:54;;;;;;;6.00;4.63;;;16.50;99.90;;;;;;4954913;29;20179;-69
2022/06/01 16:10:21;;;;;;;5.57;4.80;;;16.50;99.90;;;;;;4955060;28;20182;-69
2022/06/01 16:12:47;;;;;;;5.60;5.20;;;16.50;99.90;;;;;;4954773;28;20434;-69
2022/06/01 16:15:12;;;;;;;6.20;5.70;;;16.50;99.90;;;;;;4954849;28;20429;-69
2022/06/01 16:17:46;;;;;;;6.07;5.47;;;16.60;99.90;;;;;;4954741;28;20200;-69
2022/06/01 16:20:12;;;;;;;5.70;5.20;;;16.60;99.90;;;;;;4955080;28;20171;-69
2022/06/01 16:22:39;;;;;;;5.90;5.00;;;16.60;99.90;;;;;;4954787;28;20520;-69
2022/06/01 16:25:06;;;;;;;6.43;5.83;;;16.50;99.90;;;;;;4954696;29;20940;-69
2022/06/01 16:27:31;;;;;;;5.67;4.90;;;16.40;99.90;;;;;;4954763;28;20210;-69
2022/06/01 16:29:57;;;;;;;6.27;5.67;;;16.40;99.90;;;;;;4954347;29;20532;-69
2022/06/01 16:32:35;;;;;;;10.10;5.90;;;16.30;99.90;;;;;;4954617;29;20229;-69
2022/06/01 16:35:03;;;;;;;5.37;4.87;;;16.20;99.90;;;;;;4954635;28;20422;-69
2022/06/01 16:37:29;;;;;;;4.83;4.43;;;16.10;99.90;;;;;;4955073;28;20470;-69
2022/06/01 16:39:55;;;;;;;7.30;4.63;;;16.10;99.90;;;;;;4958499;29;20425;-69
2022/06/01 16:42:21;;;;;;;5.40;4.90;;;16.00;99.90;;;;;;4957875;28;20209;-68
2022/06/01 16:44:48;;;;;;;5.40;4.80;;;16.00;99.90;;;;;;4957613;29;20865;-68
2022/06/01 16:47:14;;;;;;;6.33;5.23;;;16.00;99.90;;;;;;4957482;28;20432;-69
2022/06/01 16:49:40;;;;;;;6.23;4.93;;;16.00;99.90;;;;;;4957454;29;20798;-70
2022/06/01 16:52:06;;;;;;;5.73;5.10;;;16.00;99.90;;;;;;4957485;29;20224;-69
2022/06/01 16:54:33;;;;;;;5.50;4.97;;;16.00;99.90;;;;;;4955976;28;20182;-70
2022/06/01 16:56:59;;;;;;;6.77;6.13;;;16.00;99.90;;;;;;4937783;29;20800;-69
2022/06/01 16:59:37;;;;;;;5.80;5.20;;;16.00;99.90;;;;;;4938456;29;20442;-68
2022/06/01 17:02:03;;;;;;;5.63;4.90;;;16.00;99.90;;;;;;4937953;29;20439;-69
2022/06/01 17:04:29;;;;;;;6.00;5.00;;;16.00;99.90;;;;;;4938030;29;20453;-69
2022/06/01 17:06:59;;;;;;;5.40;4.90;;;15.90;99.90;;;;;;4937967;29;20415;-70
2022/06/01 17:09:30;;;;;;;4.60;4.20;;;15.90;99.90;;;;;;4937868;29;20661;-70
2022/06/01 17:11:56;;;;;;;5.60;5.10;;;15.90;99.90;;;;;;4937906;29;20585;-70
2022/06/01 17:14:21;;;;;;;7.13;5.07;;;15.90;99.90;;;;;;4937897;29;20534;-69
2022/06/01 17:16:48;;;;;;;6.70;5.07;;;15.80;99.90;;;;;;4937749;29;20179;-68
2022/06/01 17:19:19;;;;;;;5.03;4.53;;;15.80;99.90;;;;;;4937638;29;20226;-69
2022/06/01 17:21:44;;;;;;;5.53;4.57;;;15.80;99.90;;;;;;4937727;29;20944;-69
2022/06/01 17:24:10;;;;;;;7.43;5.30;;;15.80;99.90;;;;;;4937817;29;20443;-70
2022/06/01 17:26:36;;;;;;;4.60;4.20;;;15.80;99.90;;;;;;4938849;29;20179;-69
2022/06/01 17:29:03;;;;;;;6.00;4.60;;;15.70;99.90;;;;;;4944968;28;20198;-69
2022/06/01 17:31:29;;;;;;;5.27;4.73;;;15.70;99.90;;;;;;4945298;29;20461;-71
2022/06/01 17:33:57;;;;;;;5.53;5.00;;;15.70;99.90;;;;;;4956663;28;20438;-72
2022/06/01 17:36:22;;;;;;;6.03;4.90;;;15.70;99.90;;;;;;4956154;28;20438;-72
2022/06/01 17:38:48;;;;;;;8.87;5.07;;;15.70;99.90;;;;;;4956495;28;21055;-76
2022/06/01 17:41:14;;;;;;;6.50;4.90;;;15.70;99.90;;;;;;4956501;29;20789;-72
2022/06/01 17:43:40;;;;;;;5.77;5.20;;;15.70;99.90;;;;;;4956468;29;20249;-73
2022/06/01 17:46:06;;;;;;;5.67;5.10;;;15.70;99.90;;;;;;4941155;29;20498;-73
2022/06/01 17:48:35;;;;;;;7.97;5.60;;;15.70;99.90;;;;;;4936931;29;20183;-72
2022/06/01 17:51:02;;;;;;;7.10;5.30;;;15.70;99.90;;;;;;4936245;29;20769;-73
2022/06/01 17:53:32;;;;;;;6.20;5.20;;;15.70;99.90;;;;;;4937032;29;20435;-74
2022/06/01 17:56:00;;;;;;;5.40;4.87;;;15.60;99.90;;;;;;4936822;29;20431;-73
2022/06/01 17:58:26;;;;;;;8.13;5.13;;;15.60;99.90;;;;;;4937069;29;20490;-74
2022/06/01 18:00:51;;;;;;;5.47;4.27;;;15.60;99.90;;;;;;4936869;29;21068;-70
2022/06/01 18:03:17;;;;;;;7.90;4.43;;;15.60;99.90;;;;;;4936084;29;20183;-73
2022/06/01 18:05:44;;;;;;;4.97;4.20;;;15.50;99.90;;;;;;4936980;29;20198;-73
2022/06/01 18:08:13;;;;;;;7.13;4.90;;;15.50;99.90;;;;;;4937090;29;21057;-73
2022/06/01 18:10:40;;;;;;;4.57;4.20;;;15.50;99.90;;;;;;4936756;29;20422;-73
2022/06/01 18:13:06;;;;;;;4.80;4.30;;;15.50;99.90;;;;;;4936981;29;20530;-73